Time;durP1;ratioP1;P1;durP2;ratioP2;P2;SDS_P1;SDS_P2;PMS_P1;PMS_P2;Temp;Humidity;BMP_temperature;BMP_pressure;BME280_temperature;BME280_humidity;BME280_pressure;Samples;Min_cycle;Max_cycle;Signal;HPM_P1;HPM_P2
2023/07/28 00:02:08;;;;;;;9.43;4.53;;;;;;;16.96;100.00;100418.63;5069666;28;20479;-68
2023/07/28 00:04:35;;;;;;;8.90;4.97;;;;;;;16.97;100.00;100412.16;5069654;28;20052;-69
2023/07/28 00:07:00;;;;;;;10.23;5.15;;;;;;;16.94;100.00;100419.94;5068277;28;20032;-68
2023/07/28 00:09:26;;;;;;;11.85;5.60;;;;;;;16.95;100.00;100411.59;5069529;28;20029;-68
2023/07/28 00:11:51;;;;;;;10.02;5.15;;;;;;;16.96;100.00;100409.72;5068230;28;20028;-68
2023/07/28 00:14:17;;;;;;;9.93;5.50;;;;;;;16.95;100.00;100405.38;5069468;28;20029;-68
2023/07/28 00:16:42;;;;;;;9.73;4.65;;;;;;;16.95;100.00;100403.53;5069548;28;20029;-68
2023/07/28 00:19:07;;;;;;;10.88;4.82;;;;;;;16.96;100.00;100405.16;5069426;28;20060;-68
2023/07/28 00:21:33;;;;;;;9.23;4.40;;;;;;;16.92;100.00;100395.91;5069439;28;20377;-68
2023/07/28 00:23:58;;;;;;;8.50;4.70;;;;;;;16.98;100.00;100399.53;5069215;28;20495;-68
2023/07/28 00:26:23;;;;;;;11.27;4.78;;;;;;;16.96;100.00;100399.75;5067939;28;20044;-68
2023/07/28 00:28:49;;;;;;;7.78;4.10;;;;;;;16.97;100.00;100395.97;5069371;28;20020;-68
2023/07/28 00:31:14;;;;;;;9.73;4.93;;;;;;;16.97;100.00;100404.06;5069314;28;20037;-69
2023/07/28 00:33:39;;;;;;;9.95;4.70;;;;;;;16.99;100.00;100398.44;5069318;28;20056;-68
2023/07/28 00:36:05;;;;;;;9.30;4.40;;;;;;;16.98;100.00;100403.03;5069699;28;20048;-68
2023/07/28 00:38:30;;;;;;;10.55;4.60;;;;;;;16.98;100.00;100399.53;5067765;28;20487;-68
2023/07/28 00:40:55;;;;;;;9.18;4.50;;;;;;;17.00;100.00;100400.06;5068993;28;20068;-68
2023/07/28 00:43:21;;;;;;;8.82;4.90;;;;;;;17.00;100.00;100402.75;5069335;28;20051;-69
2023/07/28 00:45:46;;;;;;;7.30;3.30;;;;;;;16.99;100.00;100401.94;5069127;28;20031;-68
2023/07/28 00:48:13;;;;;;;11.57;5.00;;;;;;;16.99;100.00;100399.25;5069321;28;20070;-68
2023/07/28 00:50:41;;;;;;;9.82;4.88;;;;;;;17.00;100.00;100400.91;5068980;28;20024;-69
2023/07/28 00:53:07;;;;;;;9.68;4.38;;;;;;;17.01;100.00;100399.00;5068979;28;20051;-68
2023/07/28 00:55:32;;;;;;;8.15;4.28;;;;;;;16.99;100.00;100393.06;5068961;28;20483;-68
2023/07/28 00:57:58;;;;;;;8.85;4.45;;;;;;;17.01;100.00;100399.81;5068554;28;20043;-68
2023/07/28 01:00:24;;;;;;;8.38;4.40;;;;;;;17.01;100.00;100402.50;5068864;28;20040;-69
2023/07/28 01:02:49;;;;;;;11.63;5.63;;;;;;;16.98;100.00;100392.25;5068550;28;20288;-69
2023/07/28 01:05:15;;;;;;;12.80;5.30;;;;;;;17.02;100.00;100406.03;5067825;28;20116;-69
2023/07/28 01:08:21;;;;;;;10.35;5.05;;;;;;;17.01;100.00;100409.78;5068644;28;20033;-69
2023/07/28 01:10:46;;;;;;;11.68;5.32;;;;;;;16.99;100.00;100406.53;5059919;28;20048;-69
2023/07/28 01:13:12;;;;;;;11.50;5.68;;;;;;;17.02;100.00;100414.09;5050846;28;20391;-68
2023/07/28 01:15:37;;;;;;;9.15;4.95;;;;;;;17.02;100.00;100414.09;5068664;28;20029;-69
2023/07/28 01:18:02;;;;;;;10.77;5.60;;;;;;;17.02;100.00;100416.78;5068943;28;20025;-68
2023/07/28 01:20:31;;;;;;;12.88;6.13;;;;;;;17.03;100.00;100415.75;5068680;28;20033;-69
2023/07/28 01:23:18;;;;;;;11.05;5.93;;;;;;;17.03;100.00;100418.44;5069041;28;20087;-68
2023/07/28 01:26:02;;;;;;;11.52;6.32;;;;;;;17.03;100.00;100421.13;5068687;28;20033;-68
2023/07/28 01:28:29;;;;;;;12.63;5.80;;;;;;;17.02;100.00;100414.91;5068592;28;20025;-69
2023/07/28 01:30:54;;;;;;;11.05;6.10;;;;;;;17.03;100.00;100421.94;5068671;28;20043;-68
2023/07/28 01:33:19;;;;;;;13.77;6.88;;;;;;;17.01;100.00;100413.28;5068522;28;20029;-68
2023/07/28 01:35:45;;;;;;;11.50;6.07;;;;;;;17.03;100.00;100421.94;5068642;28;20060;-68
2023/07/28 01:38:10;;;;;;;9.85;5.18;;;;;;;17.03;100.00;100418.44;5068457;28;20033;-68
2023/07/28 01:40:35;;;;;;;13.82;5.97;;;;;;;17.02;100.00;100412.22;5068405;28;20037;-68
2023/07/28 01:43:01;;;;;;;13.48;6.22;;;;;;;17.01;100.00;100418.69;5067171;28;20037;-68
2023/07/28 01:45:26;;;;;;;10.95;5.40;;;;;;;17.02;100.00;100416.78;5068431;28;20251;-68
2023/07/28 01:47:52;;;;;;;11.43;6.13;;;;;;;17.05;100.00;100424.38;5067226;28;20041;-68
2023/07/28 01:50:17;;;;;;;10.20;5.38;;;;;;;17.04;100.00;100420.88;5067026;28;20106;-68
2023/07/28 01:52:42;;;;;;;16.88;5.95;;;;;;;17.05;100.00;100425.19;5068520;28;20036;-68
2023/07/28 01:55:08;;;;;;;10.80;5.25;;;;;;;17.06;100.00;100431.41;5068483;28;20047;-68
2023/07/28 01:57:34;;;;;;;14.18;5.57;;;;;;;17.06;100.00;100424.13;5068504;28;20124;-68
2023/07/28 01:59:59;;;;;;;12.30;5.95;;;;;;;17.05;100.00;100425.19;5068186;28;20579;-69
2023/07/28 02:02:25;;;;;;;14.23;6.65;;;;;;;17.07;100.00;100425.75;5068517;28;20497;-68
2023/07/28 02:04:50;;;;;;;12.30;5.20;;;;;;;17.05;100.00;100425.19;5068122;28;20261;-68
2023/07/28 02:07:15;;;;;;;10.43;5.53;;;;;;;17.06;100.00;100413.38;5068456;28;20028;-69
2023/07/28 02:09:41;;;;;;;12.50;6.20;;;;;;;17.06;100.00;100418.75;5070713;28;20024;-68
2023/07/28 02:12:06;;;;;;;12.38;4.90;;;;;;;17.07;100.00;100414.16;5072204;28;20871;-69
2023/07/28 02:14:32;;;;;;;11.23;6.07;;;;;;;17.04;100.00;100412.78;5071796;28;20012;-69
2023/07/28 02:16:57;;;;;;;12.35;5.40;;;;;;;17.07;100.00;100412.28;5071828;28;20067;-69
2023/07/28 02:19:24;;;;;;;12.15;5.88;;;;;;;17.06;100.00;100407.16;5071631;28;20151;-69
2023/07/28 02:21:49;;;;;;;12.45;5.97;;;;;;;17.08;100.00;100410.41;5071497;28;20499;-69
2023/07/28 02:24:15;;;;;;;9.90;5.13;;;;;;;17.06;100.00;100416.06;5071617;28;20098;-69
2023/07/28 02:26:40;;;;;;;11.85;6.43;;;;;;;17.06;100.00;100412.56;5071637;28;20491;-69
2023/07/28 02:29:06;;;;;;;11.02;5.63;;;;;;;17.03;100.00;100411.16;5070063;28;20074;-69
2023/07/28 02:31:31;;;;;;;11.50;6.05;;;;;;;17.06;100.00;100416.06;5070063;28;20029;-69
2023/07/28 02:33:56;;;;;;;11.43;5.30;;;;;;;17.07;100.00;100419.56;5071301;28;20028;-69
2023/07/28 02:36:22;;;;;;;13.52;6.38;;;;;;;17.08;100.00;100418.47;5070068;28;20127;-69
2023/07/28 02:38:47;;;;;;;11.98;5.10;;;;;;;17.06;100.00;100415.25;5071311;28;20111;-69
2023/07/28 02:41:12;;;;;;;12.45;5.43;;;;;;;17.08;100.00;100416.63;5070182;28;20040;-69
2023/07/28 02:43:38;;;;;;;11.93;5.85;;;;;;;17.08;100.00;100424.72;5071203;28;20035;-69
2023/07/28 02:46:03;;;;;;;14.40;5.88;;;;;;;17.09;100.00;100428.22;5071280;28;20059;-69
2023/07/28 02:48:28;;;;;;;12.68;6.03;;;;;;;17.09;100.00;100423.63;5071251;28;20032;-69
2023/07/28 02:50:54;;;;;;;14.40;6.10;;;;;;;17.07;100.00;100423.06;5071139;28;20048;-69
2023/07/28 02:53:19;;;;;;;13.48;5.50;;;;;;;17.09;100.00;100428.22;5071030;28;20024;-69
2023/07/28 02:55:46;;;;;;;15.68;7.22;;;;;;;17.08;100.00;100437.34;5071070;28;20031;-68
2023/07/28 02:58:13;;;;;;;13.60;6.28;;;;;;;17.08;100.00;100430.09;5070918;28;20024;-69
2023/07/28 03:00:39;;;;;;;14.82;6.70;;;;;;;17.07;100.00;100425.75;5070529;28;20043;-69
2023/07/28 03:03:10;;;;;;;13.98;6.00;;;;;;;17.08;100.00;100440.88;5070851;28;20028;-69
2023/07/28 03:05:36;;;;;;;15.65;6.88;;;;;;;17.09;100.00;100444.38;5070831;28;20426;-69
2023/07/28 03:08:01;;;;;;;15.93;7.18;;;;;;;17.07;100.00;100441.13;5070846;28;20036;-69
2023/07/28 03:10:27;;;;;;;14.88;6.63;;;;;;;17.09;100.00;100441.69;5070629;28;20024;-69
2023/07/28 03:12:52;;;;;;;12.07;6.13;;;;;;;17.08;100.00;100448.13;5070767;28;20036;-69
2023/07/28 03:15:17;;;;;;;18.38;7.05;;;;;;;17.09;100.00;100441.69;5070655;28;20035;-69
2023/07/28 03:17:43;;;;;;;17.25;7.35;;;;;;;17.09;100.00;100441.69;5070722;28;20555;-69
2023/07/28 03:20:08;;;;;;;17.25;7.57;;;;;;;17.06;100.00;100440.31;5070386;28;20471;-69
2023/07/28 03:22:34;;;;;;;17.00;7.63;;;;;;;17.09;100.00;100445.19;5069133;28;20094;-69
2023/07/28 03:24:59;;;;;;;13.85;7.28;;;;;;;17.08;100.00;100443.56;5070574;28;20506;-69
2023/07/28 03:27:25;;;;;;;18.40;8.00;;;;;;;17.08;100.00;100437.34;5070278;28;20064;-69
2023/07/28 03:29:51;;;;;;;17.17;7.45;;;;;;;17.09;100.00;100439.00;5070443;28;20032;-69
2023/07/28 03:32:16;;;;;;;17.40;7.80;;;;;;;17.09;100.00;100445.19;5070373;28;20032;-69
2023/07/28 03:34:42;;;;;;;17.67;7.45;;;;;;;17.08;100.00;100448.97;5070377;28;20107;-69
2023/07/28 03:37:07;;;;;;;16.73;8.07;;;;;;;17.08;100.00;100448.97;5070260;28;20048;-70
2023/07/28 03:39:32;;;;;;;20.13;8.73;;;;;;;17.09;100.00;100445.19;5070287;28;20040;-69
2023/07/28 03:41:58;;;;;;;18.23;8.02;;;;;;;17.09;100.00;100445.19;5069962;28;20476;-69
2023/07/28 03:44:23;;;;;;;18.58;9.20;;;;;;;17.08;100.00;100450.81;5070077;28;20128;-69
2023/07/28 03:46:49;;;;;;;21.70;8.77;;;;;;;17.11;100.00;100452.19;5070013;28;20167;-69
2023/07/28 03:49:14;;;;;;;19.45;9.15;;;;;;;17.09;100.00;100458.66;5069915;28;20501;-69
2023/07/28 03:51:39;;;;;;;19.05;8.07;;;;;;;17.11;100.00;100458.44;5068548;28;20033;-69
2023/07/28 03:54:05;;;;;;;19.27;8.30;;;;;;;17.08;100.00;100454.34;5069786;28;20032;-69
2023/07/28 03:56:30;;;;;;;18.83;8.68;;;;;;;17.08;100.00;100456.22;5069829;28;20448;-69
2023/07/28 03:58:56;;;;;;;20.33;9.65;;;;;;;17.10;100.00;100464.84;5069848;28;20032;-69
2023/07/28 04:01:21;;;;;;;17.88;9.23;;;;;;;17.10;100.00;100472.94;5069729;28;20024;-69
2023/07/28 04:03:47;;;;;;;22.65;9.80;;;;;;;17.11;100.00;100469.19;5068759;28;20054;-68
2023/07/28 04:06:13;;;;;;;19.02;8.70;;;;;;;17.09;100.00;100460.53;5068748;28;20553;-69
2023/07/28 04:08:39;;;;;;;21.77;10.48;;;;;;;17.11;100.00;100454.88;5069075;28;20028;-69
2023/07/28 04:11:05;;;;;;;20.75;9.50;;;;;;;17.11;100.00;100458.44;5068902;28;20032;-69
2023/07/28 04:13:30;;;;;;;24.83;11.15;;;;;;;17.09;100.00;100466.75;5068889;28;20025;-69
2023/07/28 04:15:55;;;;;;;20.48;9.38;;;;;;;17.11;100.00;100469.19;5068965;28;20036;-69
2023/07/28 04:18:21;;;;;;;20.27;8.88;;;;;;;17.11;100.00;100468.38;5069130;28;20036;-69
2023/07/28 04:20:46;;;;;;;23.17;9.23;;;;;;;17.12;100.00;100467.31;5069425;28;20063;-69
2023/07/28 04:23:12;;;;;;;26.20;10.10;;;;;;;17.12;100.00;100464.63;5069704;28;20450;-70
2023/07/28 04:25:37;;;;;;;21.98;10.02;;;;;;;17.13;100.00;100477.03;5069288;28;20042;-69
2023/07/28 04:28:03;;;;;;;26.63;10.75;;;;;;;17.13;100.00;100477.03;5069411;28;20107;-69
2023/07/28 04:30:28;;;;;;;20.08;10.20;;;;;;;17.12;100.00;100470.81;5069144;28;20036;-69
2023/07/28 04:32:54;;;;;;;22.40;10.05;;;;;;;17.09;100.00;100468.63;5068720;28;20032;-69
2023/07/28 04:35:19;;;;;;;21.67;10.20;;;;;;;17.13;100.00;100464.34;5069222;28;20058;-69
2023/07/28 04:37:44;;;;;;;23.77;11.48;;;;;;;17.15;100.00;100478.41;5067641;28;20070;-69
2023/07/28 04:40:10;;;;;;;21.45;9.60;;;;;;;17.16;100.00;100476.50;5069358;28;20028;-69
2023/07/28 04:42:36;;;;;;;22.50;10.40;;;;;;;17.13;100.00;100474.31;5068914;28;20032;-69
2023/07/28 04:45:02;;;;;;;21.58;9.48;;;;;;;17.13;100.00;100469.75;5068968;28;20060;-69
2023/07/28 04:47:27;;;;;;;22.80;11.55;;;;;;;17.16;100.00;100465.75;5068741;28;20113;-69
2023/07/28 04:49:53;;;;;;;24.65;10.65;;;;;;;17.18;100.00;100466.31;5068962;28;20047;-69
2023/07/28 04:52:18;;;;;;;23.25;11.38;;;;;;;17.20;100.00;100462.31;5068678;28;20415;-69
2023/07/28 04:54:43;;;;;;;23.00;10.07;;;;;;;17.20;100.00;100469.56;5069015;28;20028;-69
2023/07/28 04:57:08;;;;;;;24.20;10.70;;;;;;;17.23;100.00;100469.88;5068717;28;20033;-69
2023/07/28 04:59:34;;;;;;;21.52;11.00;;;;;;;17.25;100.00;100475.84;5068638;28;20028;-69
2023/07/28 05:01:59;;;;;;;23.13;11.20;;;;;;;17.24;100.00;100465.34;5068906;28;20669;-69
2023/07/28 05:04:25;;;;;;;21.52;10.40;;;;;;;17.26;100.00;100474.75;5068858;28;20063;-69
2023/07/28 05:06:50;;;;;;;22.60;10.32;;;;;;;17.26;100.00;100474.75;5068909;28;20138;-68
2023/07/28 05:09:15;;;;;;;23.08;10.40;;;;;;;17.29;100.00;100468.91;5069151;28;20371;-69
2023/07/28 05:11:41;;;;;;;24.25;11.50;;;;;;;17.29;100.00;100468.06;5068882;28;20047;-69
2023/07/28 05:14:08;;;;;;;22.08;9.45;;;;;;;17.26;100.00;100473.97;5069140;28;20035;-69
2023/07/28 05:16:34;;;;;;;21.17;10.60;;;;;;;17.28;100.00;100486.13;5068987;28;20037;-69
2023/07/28 05:18:59;;;;;;;21.67;9.70;;;;;;;17.30;100.00;100491.28;5068888;28;20464;-69
2023/07/28 05:21:25;;;;;;;20.17;10.07;;;;;;;17.31;100.00;100492.88;5068826;28;20333;-69
2023/07/28 05:23:50;;;;;;;21.02;8.88;;;;;;;17.30;100.00;100496.66;5067659;28;20094;-69
2023/07/28 05:26:15;;;;;;;18.52;9.00;;;;;;;17.33;100.00;100508.81;5068744;28;20060;-69
2023/07/28 05:28:41;;;;;;;23.17;10.57;;;;;;;17.33;100.00;100508.81;5068912;28;20471;-69
2023/07/28 05:31:06;;;;;;;20.83;9.80;;;;;;;17.32;100.00;100508.03;5068699;28;20064;-69
2023/07/28 05:33:32;;;;;;;18.30;9.30;;;;;;;17.35;100.00;100512.91;5068852;28;20017;-69
2023/07/28 05:36:04;;;;;;;22.73;10.43;;;;;;;17.38;100.00;100519.69;5068612;28;20033;-69
2023/07/28 05:38:30;;;;;;;20.17;9.73;;;;;;;17.41;100.00;100511.09;5068849;28;20033;-69
2023/07/28 05:41:03;;;;;;;20.80;9.25;;;;;;;17.43;100.00;100509.78;5068523;28;20029;-69
2023/07/28 05:43:29;;;;;;;22.77;10.70;;;;;;;17.43;100.00;100517.06;5068208;28;20033;-69
2023/07/28 05:45:56;;;;;;;23.35;11.07;;;;;;;17.44;100.00;100522.16;5072411;28;20033;-69
2023/07/28 05:48:22;;;;;;;23.58;11.05;;;;;;;17.42;100.00;100510.84;5072540;28;20027;-69
2023/07/28 05:50:47;;;;;;;20.45;10.75;;;;;;;17.46;100.00;100521.94;5072314;28;20538;-69
2023/07/28 05:53:13;;;;;;;24.42;10.82;;;;;;;17.49;100.00;100524.94;5072490;28;20470;-69
2023/07/28 05:55:40;;;;;;;20.17;9.27;;;;;;;17.49;100.00;100524.13;5072351;28;20033;-69
2023/07/28 05:58:05;;;;;;;22.98;11.65;;;;;;;17.53;100.00;100528.78;5072098;28;20027;-69
2023/07/28 06:00:31;;;;;;;21.83;10.68;;;;;;;17.55;100.00;100530.41;5072179;28;20036;-69
2023/07/28 06:02:57;;;;;;;22.73;11.88;;;;;;;17.55;100.00;100533.09;5072138;28;20041;-70
2023/07/28 06:05:22;;;;;;;20.13;10.30;;;;;;;17.57;100.00;100537.16;5071650;28;20144;-70
2023/07/28 06:07:48;;;;;;;24.65;11.10;;;;;;;17.55;100.00;100533.09;5072254;28;20580;-69
2023/07/28 06:10:13;;;;;;;22.60;11.52;;;;;;;17.58;100.00;100532.59;5070867;28;20032;-69
2023/07/28 06:12:38;;;;;;;36.15;12.90;;;;;;;17.57;100.00;100526.38;5071954;28;20464;-69
2023/07/28 06:15:04;;;;;;;20.98;10.57;;;;;;;17.61;100.00;100526.72;5071907;28;20037;-69
2023/07/28 06:17:30;;;;;;;26.05;13.00;;;;;;;17.60;100.00;100525.88;5072040;28;20131;-70
2023/07/28 06:19:55;;;;;;;25.35;12.82;;;;;;;17.60;100.00;100530.47;5071845;28;20043;-71
2023/07/28 06:22:21;;;;;;;24.75;12.70;;;;;;;17.65;100.00;100538.63;5071309;28;20399;-70
2023/07/28 06:24:46;;;;;;;23.88;11.48;;;;;;;17.67;100.00;100531.91;5071466;28;20562;-70
2023/07/28 06:27:12;;;;;;;29.65;15.32;;;;;;;17.70;100.00;100544.06;5071777;28;20059;-70
2023/07/28 06:29:37;;;;;;;27.60;15.25;;;;;;;17.71;100.00;100540.28;5071725;28;20025;-70
2023/07/28 06:32:02;;;;;;;30.30;15.55;;;;;;;17.75;100.00;100549.53;5071565;28;20145;-70
2023/07/28 06:34:28;;;;;;;26.02;15.02;;;;;;;17.79;100.00;100548.00;5071318;28;20462;-70
2023/07/28 06:36:53;;;;;;;29.95;16.20;;;;;;;17.86;100.00;100545.91;5071645;28;20028;-70
2023/07/28 06:39:19;;;;;;;32.13;17.00;;;;;;;17.92;100.00;100546.78;5071321;28;20052;-70
2023/07/28 06:41:44;;;;;;;29.17;15.75;;;;;;;17.92;100.00;100555.72;5071386;28;20032;-70
2023/07/28 06:44:10;;;;;;;32.85;17.73;;;;;;;17.92;100.00;100552.16;5070923;28;20082;-71
2023/07/28 06:46:35;;;;;;;35.45;18.77;;;;;;;17.93;100.00;100554.63;5052967;28;20848;-69
2023/07/28 06:49:00;;;;;;;38.08;19.45;;;;;;;17.96;100.00;100556.81;5070495;28;20124;-70
2023/07/28 06:51:26;;;;;;;35.60;20.52;;;;;;;17.98;100.00;100558.47;5070927;28;20073;-69
2023/07/28 06:53:51;;;;;;;34.65;20.38;;;;;;;18.01;100.00;100560.66;5070198;28;20063;-69
2023/07/28 06:56:17;;;;;;;36.75;20.15;;;;;;;18.03;100.00;100559.31;5070787;28;20024;-69
2023/07/28 06:58:42;;;;;;;39.55;22.35;;;;;;;18.05;100.00;100565.28;5071170;28;20047;-69
2023/07/28 07:01:10;;;;;;;34.28;20.50;;;;;;;18.03;100.00;100556.63;5071045;28;20662;-70
2023/07/28 07:03:38;;;;;;;34.67;19.95;;;;;;;18.09;100.00;100573.69;5071157;28;20060;-70
2023/07/28 07:06:04;;;;;;;37.65;19.65;;;;;;;18.10;100.00;100567.22;5070833;28;20036;-70
2023/07/28 07:08:29;;;;;;;36.53;20.35;;;;;;;18.11;100.00;100576.97;5071048;28;20036;-69
2023/07/28 07:10:55;;;;;;;33.97;18.30;;;;;;;18.10;100.00;100576.16;5071036;28;20103;-71
2023/07/28 07:13:20;;;;;;;36.15;17.58;;;;;;;18.11;100.00;100580.47;5070954;28;20036;-70
2023/07/28 07:15:46;;;;;;;38.63;17.75;;;;;;;18.10;100.00;100586.09;5070946;28;20036;-70
2023/07/28 07:18:11;;;;;;;31.33;16.77;;;;;;;18.07;100.00;100575.81;5071039;28;20407;-70
2023/07/28 07:20:38;;;;;;;33.22;18.00;;;;;;;18.12;100.00;100592.06;5069787;28;20123;-70
2023/07/28 07:23:04;;;;;;;37.92;18.08;;;;;;;18.13;100.00;100589.13;5069993;28;20471;-72
2023/07/28 07:25:30;;;;;;;30.45;14.38;;;;;;;18.11;100.00;100583.16;5070501;28;20086;-72
2023/07/28 07:27:55;;;;;;;28.95;15.57;;;;;;;18.10;100.00;100592.34;5070475;28;20028;-72
2023/07/28 07:30:21;;;;;;;28.38;15.88;;;;;;;18.13;100.00;100591.84;5070422;28;20054;-72
2023/07/28 07:32:46;;;;;;;30.80;14.85;;;;;;;18.15;100.00;100599.66;5070773;28;20036;-73
2023/07/28 07:35:12;;;;;;;27.20;13.70;;;;;;;18.16;100.00;100594.03;5070118;28;20030;-72
2023/07/28 07:37:38;;;;;;;27.83;14.77;;;;;;;18.20;100.00;100597.00;5070297;28;20058;-72
2023/07/28 07:40:05;;;;;;;27.17;12.57;;;;;;;18.28;100.00;100604.66;5070028;28;20051;-71
2023/07/28 07:42:43;;;;;;;28.27;13.63;;;;;;;18.32;100.00;100607.69;5070213;28;20043;-71
2023/07/28 07:45:10;;;;;;;27.73;14.88;;;;;;;18.32;100.00;100603.09;5070135;28;20484;-69
2023/07/28 07:47:36;;;;;;;26.30;14.27;;;;;;;18.33;100.00;100604.72;5069225;28;20045;-69
2023/07/28 07:50:01;;;;;;;25.83;14.05;;;;;;;18.36;100.00;100608.78;5069169;28;20395;-69
2023/07/28 07:52:26;;;;;;;28.45;12.30;;;;;;;18.34;100.00;100611.75;5069327;28;20115;-70
2023/07/28 07:54:52;;;;;;;28.50;13.43;;;;;;;18.36;100.00;100609.59;5068408;28;20395;-71
2023/07/28 07:57:17;;;;;;;23.50;11.70;;;;;;;18.44;100.00;100611.03;5068648;28;20387;-70
2023/07/28 07:59:43;;;;;;;25.08;11.32;;;;;;;18.48;100.00;100622.97;5069248;28;20056;-69
2023/07/28 08:02:08;;;;;;;24.27;12.00;;;;;;;18.48;100.00;100611.34;5069324;28;20031;-71
2023/07/28 08:04:34;;;;;;;24.13;11.63;;;;;;;18.50;100.00;100614.63;5069439;28;20113;-71
2023/07/28 08:07:00;;;;;;;22.17;11.73;;;;;;;18.53;100.00;100622.22;5068969;28;20044;-72
2023/07/28 08:09:25;;;;;;;24.40;11.35;;;;;;;18.53;100.00;100617.63;5069829;28;20071;-72
2023/07/28 08:11:51;;;;;;;23.13;10.75;;;;;;;18.55;100.00;100625.47;5068586;28;20590;-72
2023/07/28 08:14:17;;;;;;;22.40;11.50;;;;;;;18.55;100.00;100617.38;5069454;28;20109;-72
2023/07/28 08:16:43;;;;;;;26.08;12.70;;;;;;;18.54;100.00;100615.72;5069744;28;20531;-72
2023/07/28 08:19:09;;;;;;;26.52;12.73;;;;;;;18.57;100.00;100626.81;5069465;28;20479;-72
2023/07/28 08:21:36;;;;;;;21.13;10.15;;;;;;;18.53;100.00;100630.31;5069377;28;20686;-72
2023/07/28 08:24:03;;;;;;;23.02;10.45;;;;;;;18.49;100.00;100623.78;5069427;28;20504;-71
2023/07/28 08:26:29;;;;;;;21.63;10.07;;;;;;;18.45;100.00;100639.69;5069452;28;20032;-71
2023/07/28 08:28:54;;;;;;;20.85;10.57;;;;;;;18.47;100.00;100631.31;5069399;28;20059;-71
2023/07/28 08:31:20;;;;;;;22.45;11.00;;;;;;;18.48;100.00;100628.38;5069444;28;20028;-71
2023/07/28 08:33:45;;;;;;;21.27;9.40;;;;;;;18.48;100.00;100639.16;5069397;28;20021;-72
2023/07/28 08:36:10;;;;;;;20.60;9.90;;;;;;;18.44;100.00;100627.22;5069507;28;20056;-72
2023/07/28 08:38:36;;;;;;;18.17;9.88;;;;;;;18.47;100.00;100640.25;5067978;28;20380;-69
2023/07/28 08:41:01;;;;;;;21.92;10.90;;;;;;;18.47;100.00;100651.06;5069121;28;20037;-70
2023/07/28 08:43:27;;;;;;;22.88;11.13;;;;;;;18.42;100.00;100642.91;5069395;28;20039;-83
2023/07/28 08:45:54;;;;;;;20.17;10.38;;;;;;;18.48;100.00;100657.25;5051552;28;20148;-71
2023/07/28 08:48:20;;;;;;;22.38;11.70;;;;;;;18.47;100.00;100650.22;5069274;28;20094;-70
2023/07/28 08:50:46;;;;;;;22.20;10.27;;;;;;;18.46;100.00;100646.69;5068220;28;20017;-70
2023/07/28 08:53:11;;;;;;;24.00;11.38;;;;;;;18.49;100.00;100642.69;5067151;28;20024;-67
2023/07/28 08:55:36;;;;;;;19.48;10.35;;;;;;;18.53;100.00;100646.53;5067683;28;20067;-70
2023/07/28 08:58:20;;;;;;;21.83;9.38;;;;;;;18.61;100.00;100654.16;5068444;28;20035;-68
2023/07/28 09:00:49;;;;;;;22.42;9.75;;;;;;;18.68;100.00;100648.53;5067957;28;20174;-68
2023/07/28 09:03:16;;;;;;;20.67;9.77;;;;;;;18.74;100.00;100656.44;5068110;28;20036;-68
2023/07/28 09:05:43;;;;;;;19.00;10.63;;;;;;;18.80;100.00;100655.44;5067139;28;20522;-69
2023/07/28 09:08:09;;;;;;;23.33;12.63;;;;;;;18.84;100.00;100658.47;5068696;28;20055;-69
2023/07/28 09:10:48;;;;;;;19.48;10.05;;;;;;;18.83;100.00;100660.34;5068329;28;20987;-69
2023/07/28 09:13:15;;;;;;;19.75;10.98;;;;;;;18.83;100.00;100660.34;5067801;28;20040;-70
2023/07/28 09:15:41;;;;;;;20.23;10.02;;;;;;;18.84;100.00;100663.88;5067939;28;20035;-70
2023/07/28 09:18:12;;;;;;;19.75;10.93;;;;;;;18.81;100.00;100662.50;5070350;28;20036;-69
2023/07/28 09:20:41;;;;;;;22.50;10.07;;;;;;;18.80;100.00;100658.16;5073104;28;20934;-70
2023/07/28 09:23:07;;;;;;;21.13;10.68;;;;;;;18.89;100.00;100655.81;5073189;28;20153;-70
2023/07/28 09:25:34;;;;;;;17.90;10.35;;;;;;;18.99;100.00;100661.31;5072953;28;20024;-70
2023/07/28 09:27:59;;;;;;;19.27;10.38;;;;;;;19.13;100.00;100664.41;5072842;28;20064;-70
2023/07/28 09:30:26;;;;;;;18.85;10.80;;;;;;;19.32;100.00;100662.09;5072826;28;20451;-70
2023/07/28 09:32:55;;;;;;;21.38;11.38;;;;;;;19.51;100.00;100653.56;5072640;28;20069;-70
2023/07/28 09:35:21;;;;;;;18.92;10.68;;;;;;;19.54;100.00;100661.97;5072495;28;20086;-70
2023/07/28 09:37:49;;;;;;;19.58;10.68;;;;;;;19.52;100.00;100663.28;5072639;28;20032;-70
2023/07/28 09:40:17;;;;;;;17.92;10.40;;;;;;;19.57;100.00;100664.16;5072502;28;20086;-70
2023/07/28 09:42:49;;;;;;;21.00;11.75;;;;;;;19.62;100.00;100658.78;5072497;28;20052;-70
2023/07/28 09:45:15;;;;;;;19.80;10.13;;;;;;;19.68;100.00;100665.06;5072620;28;20040;-70
2023/07/28 09:47:44;;;;;;;17.58;10.35;;;;;;;19.71;100.00;100659.13;5072515;28;20090;-70
2023/07/28 09:50:11;;;;;;;18.02;10.35;;;;;;;19.83;100.00;100664.31;5072564;28;20475;-70
2023/07/28 09:52:44;;;;;;;18.63;8.95;;;;;;;19.91;100.00;100658.41;5072338;28;20036;-69
2023/07/28 09:55:11;;;;;;;18.88;10.25;;;;;;;20.09;100.00;100659.84;5072237;28;20039;-70
2023/07/28 09:57:39;;;;;;;17.15;9.60;;;;;;;20.25;100.00;100666.13;5070867;28;20029;-70
2023/07/28 10:00:08;;;;;;;16.20;9.05;;;;;;;20.38;100.00;100665.63;5072121;28;20039;-70
2023/07/28 10:02:35;;;;;;;17.95;8.63;;;;;;;20.47;100.00;100665.94;5071869;28;20041;-70
2023/07/28 10:05:01;;;;;;;15.82;8.80;;;;;;;20.56;100.00;100669.78;5072039;28;20049;-70
2023/07/28 10:07:27;;;;;;;16.73;8.45;;;;;;;20.69;100.00;100673.88;5072123;28;20074;-70
2023/07/28 10:09:52;;;;;;;15.57;7.82;;;;;;;20.84;100.00;100670.38;5072296;28;20111;-70
2023/07/28 10:12:27;;;;;;;15.48;8.70;;;;;;;20.99;100.00;100678.53;5072005;28;20635;-70
2023/07/28 10:15:03;;;;;;;15.20;8.55;;;;;;;21.09;100.00;100670.41;5072062;28;20036;-70
2023/07/28 10:17:35;;;;;;;15.50;8.68;;;;;;;21.23;100.00;100676.88;5071907;28;20028;-70
2023/07/28 10:20:27;;;;;;;16.20;8.40;;;;;;;21.29;100.00;100674.97;5071792;28;20044;-70
2023/07/28 10:22:53;;;;;;;15.05;7.28;;;;;;;21.14;100.00;100669.56;5071917;28;20080;-70
2023/07/28 10:25:25;;;;;;;12.02;6.68;;;;;;;21.13;100.00;100676.88;5071953;28;20506;-70
2023/07/28 10:27:51;;;;;;;12.75;7.90;;;;;;;21.13;100.00;100673.38;5071685;28;20028;-70
2023/07/28 10:30:16;;;;;;;11.80;7.35;;;;;;;21.16;100.00;100679.03;5070929;28;20439;-70
2023/07/28 10:32:50;;;;;;;12.18;6.03;;;;;;;21.20;100.00;100676.63;5071628;28;20792;-70
2023/07/28 10:35:18;;;;;;;10.23;6.07;;;;;;;21.17;100.00;100672.56;5071549;28;20020;-70
2023/07/28 10:37:45;;;;;;;15.48;6.93;;;;;;;21.17;100.00;100679.88;5071796;28;20033;-70
2023/07/28 10:40:24;;;;;;;14.05;6.55;;;;;;;21.13;100.00;100673.38;5071317;28;20046;-70
2023/07/28 10:42:50;;;;;;;11.80;7.15;;;;;;;21.00;100.00;100675.53;5071509;28;20024;-70
2023/07/28 10:45:16;;;;;;;11.00;6.68;;;;;;;20.95;100.00;100666.56;5071440;28;20043;-70
2023/07/28 10:47:41;;;;;;;13.98;6.90;;;;;;;21.06;100.00;100676.34;5071566;28;20029;-70
2023/07/28 10:50:10;;;;;;;10.95;5.65;;;;;;;21.23;100.00;100673.38;5071363;28;20022;-70
2023/07/28 10:52:40;;;;;;;9.52;5.65;;;;;;;21.31;100.00;100667.38;5071110;28;20051;-70
2023/07/28 10:55:22;;;;;;;10.82;6.78;;;;;;;21.33;100.00;100676.06;5071287;28;20067;-70
2023/07/28 10:57:49;;;;;;;12.80;6.57;;;;;;;21.42;100.00;100677.16;5071341;28;20047;-70
2023/07/28 11:00:17;;;;;;;10.52;5.72;;;;;;;21.55;100.00;100674.97;5069883;28;20036;-70
2023/07/28 11:02:46;;;;;;;9.48;5.10;;;;;;;21.77;100.00;100672.78;5071205;28;20043;-70
2023/07/28 11:05:14;;;;;;;7.40;4.63;;;;;;;22.13;100.00;100680.78;5069657;28;20086;-70